Time;durP1;ratioP1;P1;durP2;ratioP2;P2;SDS_P1;SDS_P2;PMS_P1;PMS_P2;Temp;Humidity;BMP_temperature;BMP_pressure;BME280_temperature;BME280_humidity;BME280_pressure;Samples;Min_cycle;Max_cycle;Signal;HPM_P1;HPM_P2
2023/06/12 00:00:37;;;;;;;9.15;4.30;;;;;;;18.93;93.84;99331.25;10329068;28;20078;-71
2023/06/12 00:05:43;;;;;;;16.65;4.53;;;;;;;19.19;94.54;99370.09;10324152;28;20046;-71
2023/06/12 00:10:45;;;;;;;13.23;4.22;;;;;;;19.25;94.78;99397.91;10296432;28;20126;-70
2023/06/12 00:15:46;;;;;;;11.52;3.90;;;;;;;19.07;94.38;99399.00;10287139;28;20047;-71
2023/06/12 00:20:47;;;;;;;10.43;4.22;;;;;;;19.08;94.38;99411.38;10287953;28;20042;-71
2023/06/12 00:25:48;;;;;;;11.25;4.50;;;;;;;19.09;95.09;99404.97;10287253;28;20043;-70
2023/06/12 00:30:49;;;;;;;13.88;5.07;;;;;;;18.61;96.44;99334.53;10287592;28;20513;-70
2023/06/12 00:35:51;;;;;;;13.57;4.78;;;;;;;19.01;97.94;99421.53;10287417;28;20548;-70
2023/06/12 00:40:52;;;;;;;11.38;4.95;;;;;;;18.86;98.52;99422.09;10287558;28;20050;-70
2023/06/12 00:45:52;;;;;;;8.50;4.32;;;;;;;18.45;99.06;99370.28;10286891;28;20039;-70
2023/06/12 00:50:56;;;;;;;13.25;4.60;;;;;;;18.89;99.38;99430.50;10286832;28;20048;-70
2023/06/12 00:55:56;;;;;;;10.52;4.35;;;;;;;18.65;99.12;99384.06;10286350;28;20100;-70
2023/06/12 01:00:57;;;;;;;10.25;4.40;;;;;;;18.77;98.53;99418.19;10286921;28;20057;-70
2023/06/12 01:06:02;;;;;;;8.70;3.97;;;;;;;18.54;98.64;99398.41;10286331;28;20525;-70
2023/06/12 01:11:11;;;;;;;9.82;4.32;;;;;;;18.88;98.85;99433.44;10285957;28;20046;-70
2023/06/12 01:16:12;;;;;;;12.05;4.30;;;;;;;18.39;98.82;99358.63;10286470;28;20038;-70
2023/06/12 01:21:18;;;;;;;8.30;3.65;;;;;;;18.88;99.50;99441.50;10286173;28;20529;-70
2023/06/12 01:26:52;;;;;;;8.27;3.92;;;;;;;19.03;100.00;99449.03;10285800;28;20121;-70
2023/06/12 01:32:12;;;;;;;10.55;4.40;;;;;;;18.87;98.77;99448.75;10285986;28;20051;-70
2023/06/12 01:37:33;;;;;;;11.77;4.82;;;;;;;18.75;99.80;99447.19;10285761;28;20042;-70
2023/06/12 01:42:34;;;;;;;25.08;5.78;;;;;;;18.77;98.81;99445.09;10351590;28;20475;-70
2023/06/12 01:47:35;;;;;;;26.10;5.70;;;;;;;18.98;98.29;99465.06;10285753;28;20077;-70
2023/06/12 01:52:38;;;;;;;11.95;4.55;;;;;;;19.06;97.77;99451.22;10285780;28;20039;-70
2023/06/12 01:57:38;;;;;;;20.27;5.45;;;;;;;18.37;97.48;99341.13;10284883;28;20058;-71
2023/06/12 02:02:39;;;;;;;62.97;7.90;;;;;;;19.33;97.12;99470.22;10284602;28;20065;-70
2023/06/12 02:07:40;;;;;;;11.93;5.07;;;;;;;19.08;96.66;99406.81;10284582;28;20050;-70
2023/06/12 02:12:43;;;;;;;24.23;4.97;;;;;;;19.79;96.50;99492.44;10284879;28;20039;-70
2023/06/12 02:17:44;;;;;;;9.27;4.07;;;;;;;19.68;95.59;99417.91;10284823;28;20130;-70
2023/06/12 02:22:45;;;;;;;6.50;3.78;;;;;;;20.58;94.25;99475.03;10285460;28;20184;-70
2023/06/12 02:27:45;;;;;;;11.77;3.45;;;;;;;20.80;92.62;99427.19;10283723;28;20438;-70
2023/06/12 02:32:49;;;;;;;8.80;3.58;;;;;;;21.72;90.40;99483.75;10285120;28;20042;-71
2023/06/12 02:37:50;;;;;;;12.63;3.58;;;;;;;22.75;87.54;99507.41;10284395;28;20076;-71
2023/06/12 02:42:50;;;;;;;7.07;3.00;;;;;;;23.45;84.81;99513.13;10291807;28;20055;-71
2023/06/12 02:47:51;;;;;;;11.05;4.10;;;;;;;23.79;81.77;99496.28;10305952;28;20046;-71
2023/06/12 02:52:52;;;;;;;9.10;4.25;;;;;;;24.53;77.97;99500.88;10331178;28;20497;-71
2023/06/12 02:57:53;;;;;;;12.57;3.40;;;;;;;25.32;74.95;99513.63;10329571;28;20082;-71
2023/06/12 03:02:55;;;;;;;10.55;3.53;;;;;;;26.17;72.13;99497.50;10330486;28;20103;-71
2023/06/12 03:07:57;;;;;;;5.15;2.97;;;;;;;26.94;69.62;99506.50;10331061;28;20087;-71
2023/06/12 03:12:58;;;;;;;17.75;4.00;;;;;;;27.31;66.89;99514.63;10329863;28;20050;-71
2023/06/12 03:18:00;;;;;;;8.15;3.40;;;;;;;27.17;66.38;99519.22;10327923;28;20440;-71
2023/06/12 03:23:01;;;;;;;9.57;3.20;;;;;;;27.52;64.44;99504.19;10329531;28;20159;-71
2023/06/12 03:28:02;;;;;;;10.38;2.70;;;;;;;28.06;63.45;99481.84;10339671;28;20137;-71
2023/06/12 03:33:04;;;;;;;8.55;3.30;;;;;;;28.37;61.24;99482.81;10329604;28;20117;-71
2023/06/12 03:38:05;;;;;;;;;;;;;;;30.39;58.14;99500.88;10330247;28;20055;-71
2023/06/12 03:43:06;;;;;;;9.32;3.00;;;;;;;30.14;57.27;99479.72;10328980;28;19914;-71
2023/06/12 03:48:06;;;;;;;10.75;3.88;;;;;;;30.33;54.78;99409.00;10329189;28;20553;-71
2023/06/12 03:53:07;;;;;;;8.73;3.60;;;;;;;31.19;53.34;99478.63;10327537;28;20043;-71
2023/06/12 03:58:08;;;;;;;8.02;3.30;;;;;;;31.61;52.37;99473.34;10328111;28;20137;-71
2023/06/12 04:03:09;;;;;;;10.48;3.83;;;;;;;31.67;51.32;99436.31;10327361;28;20046;-71
2023/06/12 04:08:10;;;;;;;11.35;3.80;;;;;;;31.98;50.55;99492.88;10327936;28;20141;-71
2023/06/12 04:13:12;;;;;;;7.15;3.42;;;;;;;32.47;49.33;99491.31;10320480;28;20050;-71
2023/06/12 04:18:14;;;;;;;12.93;4.07;;;;;;;32.41;49.26;99483.56;10325123;28;20129;-71
2023/06/12 04:23:17;;;;;;;6.80;3.38;;;;;;;31.97;48.39;99368.47;10331337;28;20046;-71
2023/06/12 04:28:21;;;;;;;9.38;3.80;;;;;;;32.60;47.87;99485.88;10368059;28;20121;-71
2023/06/12 04:33:23;;;;;;;9.38;3.25;;;;;;;31.79;48.53;99479.56;10364791;28;20081;-70
2023/06/12 04:38:25;;;;;;;9.38;3.47;;;;;;;31.93;49.52;99491.16;10394413;28;20042;-71
2023/06/12 04:43:26;;;;;;;9.23;3.77;;;;;;;32.14;48.73;99493.94;10328135;28;20042;-71
2023/06/12 04:48:27;;;;;;;6.47;3.15;;;;;;;32.03;48.20;99504.50;10327196;28;20045;-70
2023/06/12 04:53:29;;;;;;;8.88;3.25;;;;;;;31.63;47.60;99493.03;10327374;28;20084;-70
2023/06/12 04:58:32;;;;;;;14.45;3.97;;;;;;;31.55;48.67;99471.91;10327434;28;20506;-71
2023/06/12 05:03:33;;;;;;;8.93;3.30;;;;;;;31.32;47.93;99490.50;10325150;28;20073;-69
2023/06/12 05:08:36;;;;;;;7.28;3.28;;;;;;;30.92;48.73;99493.50;10311015;28;20054;-70
2023/06/12 05:13:37;;;;;;;24.90;3.92;;;;;;;30.54;48.37;99490.59;10286544;28;20046;-70
2023/06/12 05:18:37;;;;;;;9.70;3.70;;;;;;;30.12;49.92;99487.44;10286087;28;20035;-70
2023/06/12 05:23:38;;;;;;;14.27;3.88;;;;;;;29.72;50.02;99491.03;10286276;28;20071;-70
2023/06/12 05:28:39;;;;;;;10.35;3.63;;;;;;;29.38;51.18;99463.47;10286256;28;20050;-70
2023/06/12 05:33:40;;;;;;;9.45;3.28;;;;;;;29.32;51.68;99454.63;10352913;28;20042;-70
2023/06/12 05:38:46;;;;;;;9.98;2.63;;;;;;;29.45;49.89;99469.31;10358984;28;20045;-70
2023/06/12 05:43:46;;;;;;;8.93;2.75;;;;;;;29.38;49.15;99475.25;10366111;28;20045;-69
2023/06/12 05:48:49;;;;;;;6.28;2.47;;;;;;;29.25;48.57;99466.00;10365589;28;20050;-68
2023/06/12 05:53:50;;;;;;;6.50;2.50;;;;;;;29.22;48.52;99446.66;10366240;28;20034;-69
2023/06/12 05:58:51;;;;;;;6.20;2.70;;;;;;;29.38;48.11;99460.75;10366369;28;20222;-69
2023/06/12 06:03:52;;;;;;;7.47;2.70;;;;;;;29.49;47.92;99453.88;10366963;28;20046;-68
2023/06/12 06:08:53;;;;;;;17.23;2.47;;;;;;;29.42;47.89;99440.66;10365749;28;20077;-68
2023/06/12 06:13:54;;;;;;;5.75;2.67;;;;;;;29.56;47.57;99435.88;10367080;28;20045;-68
2023/06/12 06:18:55;;;;;;;5.80;2.50;;;;;;;29.83;46.51;99422.31;10368288;28;20037;-70
2023/06/12 06:23:56;;;;;;;6.53;2.47;;;;;;;29.49;47.51;99361.66;10368910;28;20040;-70
2023/06/12 06:28:57;;;;;;;7.85;2.35;;;;;;;30.30;47.19;99445.28;10366157;28;20045;-71
2023/06/12 06:33:58;;;;;;;7.10;2.63;;;;;;;30.44;46.52;99439.66;10434386;28;20047;-70
2023/06/12 06:38:58;;;;;;;10.55;2.63;;;;;;;30.70;46.11;99420.44;10372373;28;20046;-70
2023/06/12 06:43:59;;;;;;;7.72;2.38;;;;;;;30.13;45.20;99352.13;10371523;28;20450;-70
2023/06/12 06:49:00;;;;;;;6.88;2.65;;;;;;;30.83;44.61;99433.19;10332513;28;20062;-70
2023/06/12 06:54:01;;;;;;;11.70;3.38;;;;;;;30.72;44.55;99368.81;10331047;28;20068;-71
2023/06/12 06:59:02;;;;;;;5.90;2.38;;;;;;;30.43;44.50;99333.91;10330199;28;20407;-71
2023/06/12 07:04:02;;;;;;;6.25;2.42;;;;;;;31.27;44.08;99419.38;10328135;28;20038;-71
2023/06/12 07:09:03;;;;;;;8.55;2.40;;;;;;;31.54;42.95;99418.97;10396249;28;20058;-69
2023/06/12 07:14:04;;;;;;;6.28;2.17;;;;;;;31.51;43.14;99405.09;10374896;28;20042;-67
2023/06/12 07:19:05;;;;;;;5.85;2.63;;;;;;;31.54;43.67;99374.25;10328475;28;20070;-71
2023/06/12 07:24:06;;;;;;;24.88;3.33;;;;;;;31.69;43.20;99379.16;10329849;28;20083;-71
2023/06/12 07:29:07;;;;;;;8.25;2.58;;;;;;;31.68;42.70;99399.53;10329728;28;20046;-70
2023/06/12 07:34:07;;;;;;;7.53;2.95;;;;;;;31.98;42.74;99394.00;10396503;28;20183;-70
2023/06/12 07:39:08;;;;;;;7.82;2.70;;;;;;;32.08;41.73;99381.84;10329179;28;20571;-71
2023/06/12 07:44:12;;;;;;;5.60;2.10;;;;;;;32.28;41.15;99390.06;10320727;28;20049;-71
2023/06/12 07:49:14;;;;;;;10.65;2.33;;;;;;;32.26;40.68;99372.31;10289896;28;20065;-71
2023/06/12 07:54:15;;;;;;;5.72;2.17;;;;;;;32.40;40.70;99386.56;10288970;28;20042;-70
2023/06/12 07:59:16;;;;;;;6.70;2.83;;;;;;;32.30;40.71;99370.47;10289084;28;20403;-69
2023/06/12 08:04:17;;;;;;;12.30;2.58;;;;;;;32.20;40.57;99346.97;10355390;28;20073;-71
2023/06/12 08:09:18;;;;;;;9.70;2.40;;;;;;;32.26;40.31;99375.84;10288428;28;20521;-71
2023/06/12 08:14:20;;;;;;;11.55;2.60;;;;;;;32.28;40.77;99359.03;10355109;28;20077;-70
2023/06/12 08:19:21;;;;;;;25.77;4.28;;;;;;;32.85;41.18;99368.53;10288440;28;20050;-70
2023/06/12 08:24:22;;;;;;;8.43;2.50;;;;;;;32.53;40.16;99266.47;10289975;28;20070;-70
2023/06/12 08:29:22;;;;;;;12.45;2.67;;;;;;;33.45;39.16;99357.94;10322107;28;20046;-70
2023/06/12 08:34:24;;;;;;;16.60;3.05;;;;;;;33.45;38.71;99346.94;10322349;28;20046;-69
2023/06/12 08:39:26;;;;;;;4.57;2.10;;;;;;;33.28;38.44;99350.72;10323774;28;20071;-70
2023/06/12 08:44:29;;;;;;;5.37;2.57;;;;;;;33.22;37.87;99338.31;10317657;28;20046;-70
2023/06/12 08:49:31;;;;;;;15.98;2.58;;;;;;;33.16;38.36;99279.97;10314080;28;20041;-70
2023/06/12 08:54:37;;;;;;;16.63;2.50;;;;;;;33.62;37.82;99330.16;10313738;28;20125;-71
2023/06/12 08:59:37;;;;;;;11.15;2.20;;;;;;;32.93;37.62;99216.31;10372308;28;20054;-72
2023/06/12 09:04:44;;;;;;;10.57;3.30;;;;;;;33.35;35.10;99332.47;10292363;28;20053;-69
2023/06/12 09:09:46;;;;;;;12.77;2.53;;;;;;;33.52;36.13;99312.19;10286435;28;20074;-70
2023/06/12 09:14:50;;;;;;;4.88;1.83;;;;;;;33.88;35.26;99316.00;10295859;28;20130;-70
2023/06/12 09:19:51;;;;;;;6.35;1.83;;;;;;;33.93;33.90;99324.03;10284579;28;20047;-70
2023/06/12 09:24:55;;;;;;;10.25;2.10;;;;;;;34.04;33.90;99319.66;10295601;28;20050;-70
2023/06/12 09:29:59;;;;;;;5.18;1.92;;;;;;;34.11;33.47;99329.28;10314553;28;20172;-73
2023/06/12 09:35:01;;;;;;;14.07;2.50;;;;;;;34.15;34.86;99297.09;10309484;28;20046;-71
2023/06/12 09:40:13;;;;;;;24.70;2.33;;;;;;;34.36;33.22;99297.69;10312026;28;20405;-71
2023/06/12 09:45:16;;;;;;;7.38;1.98;;;;;;;34.23;33.31;99304.44;10298781;28;20046;-69
2023/06/12 09:50:18;;;;;;;9.93;2.20;;;;;;;34.34;33.73;99304.69;10298189;28;20050;-72
2023/06/12 09:55:20;;;;;;;15.13;2.15;;;;;;;33.92;33.37;99239.75;10292553;28;20130;-69
2023/06/12 10:00:23;;;;;;;5.97;1.85;;;;;;;34.11;32.31;99283.22;10293705;28;20042;-70
2023/06/12 10:05:42;;;;;;;6.70;1.98;;;;;;;34.42;33.31;99314.78;10391388;28;20046;-70
2023/06/12 10:10:44;;;;;;;8.30;2.10;;;;;;;34.22;32.65;99292.56;10330942;28;20095;-69
2023/06/12 10:15:46;;;;;;;4.95;2.15;;;;;;;34.38;32.69;99291.84;10332480;28;20038;-69
2023/06/12 10:20:49;;;;;;;13.90;2.45;;;;;;;34.48;34.41;99274.75;10386774;28;20171;-70
2023/06/12 10:25:50;;;;;;;48.88;4.40;;;;;;;34.79;33.92;99287.78;10330464;28;20093;-70
2023/06/12 10:31:13;;;;;;;8.07;1.90;;;;;;;34.86;33.31;99285.22;10331540;28;20047;-69
2023/06/12 10:36:17;;;;;;;9.02;2.20;;;;;;;34.51;32.10;99260.25;10330921;28;20074;-70
2023/06/12 10:41:33;;;;;;;10.35;2.30;;;;;;;34.69;33.14;99227.66;10331665;28;20100;-70
2023/06/12 10:46:44;;;;;;;37.03;2.95;;;;;;;34.84;33.35;99202.00;10398464;28;20111;-71
2023/06/12 10:51:50;;;;;;;12.57;3.08;;;;;;;35.09;32.20;99240.44;10331367;28;20065;-70
2023/06/12 10:57:03;;;;;;;9.73;2.25;;;;;;;35.08;32.13;99247.13;10325496;28;20478;-70
2023/06/12 11:02:04;;;;;;;8.25;2.20;;;;;;;34.64;32.60;99214.13;10324219;28;20055;-70
2023/06/12 11:07:05;;;;;;;5.60;2.08;;;;;;;34.73;32.38;99262.44;10299709;28;20126;-69
2023/06/12 11:12:10;;;;;;;13.63;2.28;;;;;;;34.93;32.25;99248.72;10374817;28;20054;-71
2023/06/12 11:17:10;;;;;;;7.93;2.20;;;;;;;34.62;32.65;99186.91;10330445;28;20046;-69
2023/06/12 11:22:11;;;;;;;10.75;2.70;;;;;;;34.65;32.76;99230.31;10330999;28;20141;-70
2023/06/12 11:27:12;;;;;;;8.27;2.38;;;;;;;34.75;33.43;99248.28;10330048;28;20038;-73
2023/06/12 11:32:13;;;;;;;10.02;2.25;;;;;;;33.79;34.91;99101.28;10330108;28;20038;-70
2023/06/12 11:37:16;;;;;;;4.45;1.95;;;;;;;34.05;34.81;99177.97;10329779;28;20409;-70
2023/06/12 11:42:17;;;;;;;6.28;2.22;;;;;;;34.16;34.86;99257.34;10329201;28;20066;-69
2023/06/12 11:47:19;;;;;;;20.65;2.80;;;;;;;33.27;35.34;99171.03;10329067;28;20490;-69
2023/06/12 11:52:25;;;;;;;7.75;2.90;;;;;;;33.50;36.09;99262.13;10329894;28;20038;-70
2023/06/12 11:57:27;;;;;;;7.63;2.30;;;;;;;33.33;35.55;99254.94;10329504;28;20521;-70
2023/06/12 12:02:39;;;;;;;6.75;1.88;;;;;;;33.47;35.60;99260.06;10329040;28;20506;-70
2023/06/12 12:07:41;;;;;;;8.60;2.17;;;;;;;32.88;36.65;99169.81;10345912;28;20041;-70
2023/06/12 12:12:50;;;;;;;28.90;3.45;;;;;;;33.39;37.10;99256.31;10367888;28;20119;-71
2023/06/12 12:17:52;;;;;;;7.97;2.63;;;;;;;33.13;37.33;99189.84;10436539;28;20058;-69
2023/06/12 12:22:55;;;;;;;6.47;2.30;;;;;;;33.52;38.02;99254.34;10409103;28;20046;-71
2023/06/12 12:28:03;;;;;;;7.95;2.40;;;;;;;33.50;36.97;99262.13;10393555;28;20050;-69
2023/06/12 12:33:04;;;;;;;15.10;2.97;;;;;;;33.45;37.28;99256.88;10322038;28;20513;-71
2023/06/12 12:38:05;;;;;;;7.45;2.20;;;;;;;33.43;36.46;99239.91;10384393;28;20042;-70
2023/06/12 12:43:05;;;;;;;10.35;3.30;;;;;;;33.27;36.93;99190.28;10325032;28;20042;-69
2023/06/12 12:48:06;;;;;;;8.77;3.05;;;;;;;34.09;37.06;99250.50;10338481;28;20112;-69
2023/06/12 12:53:07;;;;;;;5.57;2.42;;;;;;;33.86;35.50;99197.09;10346400;28;20041;-69
2023/06/12 12:58:08;;;;;;;11.77;3.17;;;;;;;34.18;35.33;99268.84;10330487;28;20539;-70
2023/06/12 13:03:09;;;;;;;8.25;2.85;;;;;;;34.14;35.07;99210.88;10329068;28;20091;-69
2023/06/12 13:08:10;;;;;;;7.13;2.47;;;;;;;34.28;34.82;99210.44;10322382;28;20046;-69
2023/06/12 13:13:11;;;;;;;8.75;3.13;;;;;;;34.54;34.28;99251.31;10296828;28;20043;-69
2023/06/12 13:18:14;;;;;;;5.78;2.33;;;;;;;34.59;33.47;99256.56;10325957;28;20099;-70
2023/06/12 13:23:15;;;;;;;7.97;2.47;;;;;;;34.72;34.15;99244.28;10393153;28;20132;-70
2023/06/12 13:28:16;;;;;;;8.63;2.53;;;;;;;34.67;33.52;99250.06;10392008;28;20076;-69
2023/06/12 13:33:17;;;;;;;11.40;2.47;;;;;;;34.52;33.50;99235.09;10304689;28;20080;-70
2023/06/12 13:38:18;;;;;;;7.05;2.30;;;;;;;34.43;33.90;99231.72;10303895;28;20108;-70
2023/06/12 13:43:18;;;;;;;20.17;2.72;;;;;;;34.39;34.21;99224.50;10352367;28;20047;-69
2023/06/12 13:48:20;;;;;;;7.40;2.80;;;;;;;33.93;34.21;99211.06;10284991;28;20047;-70
2023/06/12 13:53:21;;;;;;;8.90;3.47;;;;;;;32.92;35.08;99154.19;10285782;28;20043;-70
2023/06/12 13:58:22;;;;;;;8.13;2.13;;;;;;;33.27;35.26;99195.00;10285113;28;20089;-69
2023/06/12 14:03:23;;;;;;;10.43;2.42;;;;;;;33.55;34.43;99209.59;10289838;28;20107;-71
2023/06/12 14:08:23;;;;;;;10.60;2.45;;;;;;;33.60;34.19;99223.13;10342339;28;20058;-70
2023/06/12 14:13:24;;;;;;;12.18;3.47;;;;;;;32.97;34.05;99118.22;10408132;28;20042;-71
2023/06/12 14:18:25;;;;;;;9.75;2.40;;;;;;;33.44;34.33;99216.72;10344359;28;20041;-69
2023/06/12 14:23:26;;;;;;;31.45;4.15;;;;;;;33.42;34.25;99235.56;10343430;28;20567;-69
2023/06/12 14:28:27;;;;;;;30.63;3.67;;;;;;;33.37;34.40;99227.53;10410824;28;20034;-70
2023/06/12 14:33:28;;;;;;;8.50;2.60;;;;;;;33.40;33.55;99219.38;10319617;28;20035;-70
2023/06/12 14:38:28;;;;;;;5.93;2.40;;;;;;;33.40;33.44;99224.06;10331785;28;20038;-69
2023/06/12 14:43:29;;;;;;;26.40;3.53;;;;;;;33.31;33.82;99234.41;10330997;28;20108;-69
2023/06/12 14:48:31;;;;;;;7.97;2.60;;;;;;;33.24;34.31;99243.28;10330789;28;20042;-69
2023/06/12 14:53:32;;;;;;;27.90;3.57;;;;;;;32.42;35.03;99166.31;10398380;28;20486;-69
2023/06/12 14:58:33;;;;;;;13.20;1.98;;;;;;;32.03;34.58;99179.53;10331291;28;20083;-68
2023/06/12 15:03:34;;;;;;;10.85;2.28;;;;;;;31.99;35.57;99215.13;10388667;28;20051;-69
2023/06/12 15:08:35;;;;;;;20.45;5.28;;;;;;;31.80;36.38;99236.75;10303838;28;20100;-69
2023/06/12 15:13:36;;;;;;;41.45;5.50;;;;;;;31.50;37.30;99233.28;10378245;28;20046;-69
2023/06/12 15:18:37;;;;;;;17.63;5.88;;;;;;;31.39;37.15;99249.38;10330828;28;20042;-69
2023/06/12 15:23:37;;;;;;;21.23;5.60;;;;;;;31.20;37.43;99246.22;10321106;28;20042;-69
2023/06/12 15:28:39;;;;;;;26.25;7.07;;;;;;;30.97;37.71;99234.75;10328040;28;20123;-71
2023/06/12 15:33:39;;;;;;;26.38;6.50;;;;;;;30.60;38.09;99188.59;10335887;28;20038;-71
2023/06/12 15:38:48;;;;;;;15.50;5.25;;;;;;;30.75;38.64;99244.81;10329602;28;20034;-71
2023/06/12 15:43:49;;;;;;;26.20;6.55;;;;;;;30.84;38.59;99273.03;10337681;28;20046;-75
2023/06/12 15:48:50;;;;;;;23.40;7.55;;;;;;;30.39;38.71;99201.41;10414907;28;20537;-72
2023/06/12 15:53:51;;;;;;;19.60;5.35;;;;;;;30.76;39.22;99265.63;10345758;28;20054;-72
2023/06/12 15:58:51;;;;;;;10.52;4.05;;;;;;;30.71;39.15;99257.56;10377581;28;20058;-73
2023/06/12 16:03:54;;;;;;;14.73;7.55;;;;;;;30.47;39.13;99258.94;10395679;28;20042;-73
2023/06/12 16:08:55;;;;;;;28.25;8.07;;;;;;;30.00;40.59;99201.34;10288701;28;20050;-73
2023/06/12 16:13:56;;;;;;;19.27;6.63;;;;;;;30.02;40.73;99220.97;10303680;28;20038;-73
2023/06/12 16:18:56;;;;;;;15.48;6.03;;;;;;;29.83;42.47;99223.28;10316301;28;20043;-72
2023/06/12 16:23:59;;;;;;;40.42;7.53;;;;;;;30.07;43.38;99288.50;10341115;28;20046;-72
2023/06/12 16:28:59;;;;;;;32.72;5.32;;;;;;;29.32;44.26;99225.66;10340936;28;20512;-72
2023/06/12 16:34:00;;;;;;;34.70;7.63;;;;;;;29.14;45.25;99232.22;10325231;28;20049;-72
2023/06/12 16:39:03;;;;;;;47.08;9.18;;;;;;;29.00;46.13;99250.63;10340776;28;20115;-74
2023/06/12 16:44:04;;;;;;;37.03;7.18;;;;;;;29.09;47.47;99304.25;10343611;28;20038;-73
2023/06/12 16:49:05;;;;;;;25.63;7.20;;;;;;;28.94;49.04;99312.06;10332531;28;20077;-71
2023/06/12 16:54:07;;;;;;;36.75;7.68;;;;;;;28.98;48.28;99311.09;10344770;28;20133;-72
2023/06/12 16:59:07;;;;;;;20.15;6.30;;;;;;;29.00;47.59;99310.78;10340330;28;20054;-77
2023/06/12 17:04:08;;;;;;;20.88;9.07;;;;;;;28.13;48.02;99176.47;10341382;28;20037;-72
2023/06/12 17:09:09;;;;;;;18.63;8.63;;;;;;;28.89;48.42;99324.72;10346211;28;20041;-72
2023/06/12 17:14:10;;;;;;;38.30;13.60;;;;;;;28.67;49.49;99325.56;10340408;28;20073;-72
2023/06/12 17:19:11;;;;;;;22.15;9.57;;;;;;;28.36;51.13;99328.25;10341718;28;20042;-72
2023/06/12 17:24:12;;;;;;;27.25;10.32;;;;;;;27.98;52.25;99286.84;10331808;28;20450;-72
2023/06/12 17:29:13;;;;;;;26.48;10.25;;;;;;;27.99;53.02;99311.09;10338501;28;20053;-71
2023/06/12 17:34:14;;;;;;;24.80;7.15;;;;;;;27.89;52.83;99310.53;10342349;28;20410;-71
2023/06/12 17:39:15;;;;;;;12.63;4.30;;;;;;;27.66;52.51;99285.91;10338298;28;20045;-72
2023/06/12 17:44:16;;;;;;;11.38;3.47;;;;;;;27.92;49.09;99327.09;10343801;28;20136;-72
2023/06/12 17:49:17;;;;;;;8.52;3.20;;;;;;;27.19;46.48;99200.78;10331679;28;20065;-72
2023/06/12 17:54:18;;;;;;;8.82;3.42;;;;;;;28.01;45.04;99332.66;10341548;28;20149;-73
2023/06/12 17:59:19;;;;;;;9.07;3.95;;;;;;;27.99;44.22;99332.94;10410613;28;20054;-72
2023/06/12 18:04:20;;;;;;;13.70;4.38;;;;;;;27.33;43.30;99249.00;10338006;28;20091;-71
2023/06/12 18:09:20;;;;;;;11.85;4.53;;;;;;;27.47;42.74;99255.25;10340392;28;20050;-77
2023/06/12 18:14:21;;;;;;;10.00;5.15;;;;;;;27.98;43.03;99336.00;10343883;28;20045;-76
2023/06/12 18:19:22;;;;;;;11.73;5.97;;;;;;;27.87;43.23;99340.84;10342872;28;20042;-80
2023/06/12 18:24:23;;;;;;;15.57;5.57;;;;;;;27.82;43.35;99321.88;10345469;28;20045;-79
2023/06/12 18:29:24;;;;;;;16.15;5.45;;;;;;;27.79;43.50;99338.03;10350944;28;20050;-75
2023/06/12 18:34:25;;;;;;;15.02;4.68;;;;;;;27.07;43.42;99238.59;10350787;28;20192;-76
2023/06/12 18:39:25;;;;;;;19.02;6.65;;;;;;;27.54;43.38;99313.72;10346631;28;20042;-80
2023/06/12 18:44:26;;;;;;;12.45;5.57;;;;;;;27.46;43.67;99309.00;10335292;28;20042;-76
2023/06/12 18:49:27;;;;;;;21.60;5.70;;;;;;;27.44;43.76;99318.59;10332474;28;20046;-76
2023/06/12 18:54:28;;;;;;;7.18;3.17;;;;;;;27.22;43.89;99308.38;10330206;28;20037;-76
2023/06/12 18:59:29;;;;;;;5.22;2.63;;;;;;;27.26;44.36;99323.84;10330769;28;20065;-76
2023/06/12 19:04:30;;;;;;;6.07;2.45;;;;;;;26.89;44.91;99294.81;10330352;28;20076;-76
2023/06/12 19:09:31;;;;;;;11.27;2.90;;;;;;;26.72;45.73;99294.63;10330143;28;20109;-75
2023/06/12 19:14:32;;;;;;;17.42;3.92;;;;;;;26.54;46.88;99304.47;10330840;28;20135;-76
2023/06/12 19:19:33;;;;;;;21.17;3.83;;;;;;;26.49;48.34;99337.19;10330944;28;20042;-76
2023/06/12 19:24:33;;;;;;;8.32;2.65;;;;;;;26.39;49.16;99355.31;10330211;28;20500;-76
2023/06/12 19:29:34;;;;;;;11.07;2.67;;;;;;;26.43;50.02;99380.03;10330014;28;20042;-76
2023/06/12 19:34:35;;;;;;;7.78;2.53;;;;;;;26.15;51.05;99354.63;10329756;28;20050;-76
2023/06/12 19:39:43;;;;;;;21.17;3.15;;;;;;;26.31;53.46;99369.59;10397365;28;20038;-76
2023/06/12 19:44:43;;;;;;;8.32;3.05;;;;;;;26.13;52.72;99357.63;10330411;28;20050;-76
2023/06/12 19:49:47;;;;;;;8.95;2.55;;;;;;;25.66;53.01;99301.41;10329392;28;20038;-76
2023/06/12 19:54:47;;;;;;;;;;;;;;;26.36;51.83;99406.84;10329824;28;20038;-76
2023/06/12 19:59:48;;;;;;;7.32;2.40;;;;;;;25.41;53.88;99305.28;10396258;28;19922;-75
2023/06/12 20:04:49;;;;;;;9.43;2.83;;;;;;;26.00;54.94;99403.84;10327914;28;20042;-75
2023/06/12 20:09:50;;;;;;;6.00;2.40;;;;;;;25.86;55.43;99380.06;10314550;28;20085;-75
2023/06/12 20:14:51;;;;;;;6.32;2.35;;;;;;;25.81;56.67;99377.34;10328062;28;20050;-75
2023/06/12 20:19:52;;;;;;;6.35;2.38;;;;;;;25.83;57.57;99399.69;10328700;28;20121;-75
2023/06/12 20:24:53;;;;;;;10.40;2.45;;;;;;;25.66;58.05;99383.81;10328536;28;20121;-76
2023/06/12 20:29:54;;;;;;;13.20;2.95;;;;;;;25.27;60.90;99354.09;10325745;28;20409;-76
2023/06/12 20:34:55;;;;;;;14.10;2.80;;;;;;;25.44;63.73;99421.59;10309310;28;20042;-76
2023/06/12 20:39:57;;;;;;;10.00;2.92;;;;;;;24.90;64.93;99415.31;10395098;28;20448;-75
2023/06/12 20:44:58;;;;;;;10.18;3.00;;;;;;;24.91;67.84;99430.50;10326503;28;20046;-77
2023/06/12 20:49:59;;;;;;;8.98;2.92;;;;;;;24.67;70.49;99416.03;10353019;28;20421;-77
2023/06/12 20:55:00;;;;;;;12.05;3.40;;;;;;;24.53;73.14;99429.44;10367154;28;20049;-78
2023/06/12 21:00:01;;;;;;;16.63;3.60;;;;;;;24.22;76.53;99420.66;10367522;28;20065;-77
2023/06/12 21:05:01;;;;;;;9.23;3.35;;;;;;;24.10;79.01;99445.44;10435954;28;20557;-76
2023/06/12 21:10:03;;;;;;;11.80;3.63;;;;;;;23.97;81.63;99456.91;10326522;28;20129;-76
2023/06/12 21:15:05;;;;;;;12.52;3.25;;;;;;;23.85;83.44;99460.72;10326879;28;20046;-75
2023/06/12 21:20:06;;;;;;;8.57;3.10;;;;;;;23.68;85.13;99450.19;10326918;28;20053;-75
2023/06/12 21:25:08;;;;;;;11.73;3.55;;;;;;;23.44;88.35;99411.22;10325922;28;20045;-75
2023/06/12 21:30:10;;;;;;;9.63;2.97;;;;;;;23.09;87.95;99371.47;10326460;28;20569;-75
2023/06/12 21:35:11;;;;;;;11.75;3.75;;;;;;;23.46;89.75;99472.19;10326230;28;20493;-75
2023/06/12 21:40:12;;;;;;;12.55;4.18;;;;;;;23.39;89.93;99478.97;10326329;28;20038;-74
2023/06/12 21:45:12;;;;;;;10.15;3.83;;;;;;;23.31;91.48;99515.59;10324084;28;20405;-73
2023/06/12 21:50:13;;;;;;;7.15;3.70;;;;;;;23.12;91.57;99504.47;10326057;28;20052;-73
2023/06/12 21:55:15;;;;;;;12.10;3.63;;;;;;;22.53;91.93;99432.66;10325957;28;20046;-72
2023/06/12 22:00:16;;;;;;;8.65;3.35;;;;;;;22.86;92.37;99467.63;10326184;28;20398;-71
2023/06/12 22:05:16;;;;;;;10.95;3.95;;;;;;;22.97;93.13;99488.22;10325110;28;20038;-70
2023/06/12 22:10:17;;;;;;;9.65;3.97;;;;;;;22.87;94.16;99493.59;10325475;28;20038;-70
2023/06/12 22:15:18;;;;;;;17.35;4.00;;;;;;;22.77;95.20;99494.41;10326445;28;20046;-70
2023/06/12 22:20:20;;;;;;;8.82;3.90;;;;;;;22.77;96.57;99473.56;10325722;28;20049;-70
2023/06/12 22:25:21;;;;;;;7.65;3.90;;;;;;;22.69;96.65;99460.56;10325169;28;20060;-70
2023/06/12 22:30:22;;;;;;;12.13;4.10;;;;;;;22.77;96.98;99448.41;10325004;28;20038;-70
2023/06/12 22:35:23;;;;;;;8.07;4.22;;;;;;;22.23;98.15;99365.78;10324362;28;20490;-70
2023/06/12 22:40:24;;;;;;;10.55;4.45;;;;;;;22.43;98.40;99415.59;10324115;28;20510;-70
2023/06/12 22:45:25;;;;;;;7.95;4.25;;;;;;;21.94;99.55;99376.25;10323508;28;20121;-70
2023/06/12 22:50:26;;;;;;;8.65;4.75;;;;;;;22.25;100.00;99417.72;10323939;28;20133;-69
2023/06/12 22:55:27;;;;;;;8.63;4.38;;;;;;;21.63;100.00;99296.97;10323148;28;20058;-71
2023/06/12 23:00:27;;;;;;;9.15;4.43;;;;;;;21.75;100.00;99294.84;10330492;28;20073;-71
2023/06/12 23:05:28;;;;;;;11.85;4.32;;;;;;;22.30;100.00;99368.22;10331064;28;20080;-71
2023/06/12 23:10:29;;;;;;;13.93;4.32;;;;;;;22.33;100.00;99398.25;10329843;28;20081;-71
2023/06/12 23:15:30;;;;;;;9.45;4.13;;;;;;;22.27;100.00;99420.97;10331021;28;20042;-71